sensor_id;sensor_type;location;lat;lon;timestamp;pressure;altitude;pressure_sealevel;temperature;humidity
46448;BME280;32145;50.390;30.778;2022-12-07T00:00:55;100406.88;;;-5.45;71.85
46448;BME280;32145;50.390;30.778;2022-12-07T00:03:50;100407.63;;;-5.43;71.55
46448;BME280;32145;50.390;30.778;2022-12-07T00:06:37;100403.06;;;-5.41;71.57
46448;BME280;32145;50.390;30.778;2022-12-07T00:09:21;100407.41;;;-5.40;71.52
46448;BME280;32145;50.390;30.778;2022-12-07T00:12:05;100404.75;;;-5.40;71.00
46448;BME280;32145;50.390;30.778;2022-12-07T00:14:49;100406.44;;;-5.39;71.24
46448;BME280;32145;50.390;30.778;2022-12-07T00:17:33;100402.81;;;-5.38;71.18
46448;BME280;32145;50.390;30.778;2022-12-07T00:20:19;100402.81;;;-5.38;71.33
46448;BME280;32145;50.390;30.778;2022-12-07T00:23:03;100397.31;;;-5.35;71.22
46448;BME280;32145;50.390;30.778;2022-12-07T00:25:47;100405.97;;;-5.33;71.18
46448;BME280;32145;50.390;30.778;2022-12-07T00:28:31;100400.69;;;-5.33;70.54
46448;BME280;32145;50.390;30.778;2022-12-07T00:31:17;100402.38;;;-5.32;70.75
46448;BME280;32145;50.390;30.778;2022-12-07T00:34:02;100395.16;;;-5.30;71.11
46448;BME280;32145;50.390;30.778;2022-12-07T00:36:48;100391.56;;;-5.28;70.78
46448;BME280;32145;50.390;30.778;2022-12-07T00:39:32;100393.13;;;-5.26;70.86
46448;BME280;32145;50.390;30.778;2022-12-07T00:42:16;100389.53;;;-5.25;70.88
46448;BME280;32145;50.390;30.778;2022-12-07T00:45:00;100376.06;;;-5.22;71.11
46448;BME280;32145;50.390;30.778;2022-12-07T00:47:44;100373.31;;;-5.20;71.01
46448;BME280;32145;50.390;30.778;2022-12-07T00:50:28;100376.66;;;-5.18;71.00
46448;BME280;32145;50.390;30.778;2022-12-07T00:53:13;100373.06;;;-5.17;70.65
46448;BME280;32145;50.390;30.778;2022-12-07T00:55:57;100374.75;;;-5.16;71.19
46448;BME280;32145;50.390;30.778;2022-12-07T00:58:41;100372.81;;;-5.14;70.63
46448;BME280;32145;50.390;30.778;2022-12-07T01:01:29;100371.75;;;-5.11;70.65
46448;BME280;32145;50.390;30.778;2022-12-07T01:04:13;100373.34;;;-5.09;70.59
46448;BME280;32145;50.390;30.778;2022-12-07T01:06:57;100370.44;;;-5.06;70.98
46448;BME280;32145;50.390;30.778;2022-12-07T01:09:43;100365.13;;;-5.06;70.86
46448;BME280;32145;50.390;30.778;2022-12-07T01:12:27;100357.94;;;-5.03;70.89
46448;BME280;32145;50.390;30.778;2022-12-07T01:15:11;100356.00;;;-5.01;71.23
46448;BME280;32145;50.390;30.778;2022-12-07T01:17:56;100351.44;;;-4.99;70.81
46448;BME280;32145;50.390;30.778;2022-12-07T01:20:39;100350.47;;;-4.98;70.61
46448;BME280;32145;50.390;30.778;2022-12-07T01:23:24;100346.88;;;-4.97;71.32
46448;BME280;32145;50.390;30.778;2022-12-07T01:26:12;100348.56;;;-4.96;71.01
46448;BME280;32145;50.390;30.778;2022-12-07T01:28:57;100337.03;;;-4.95;71.05
46448;BME280;32145;50.390;30.778;2022-12-07T01:31:41;100337.72;;;-4.93;71.00
46448;BME280;32145;50.390;30.778;2022-12-07T01:34:25;100338.47;;;-4.91;71.22
46448;BME280;32145;50.390;30.778;2022-12-07T01:37:09;100319.94;;;-4.91;71.29
46448;BME280;32145;50.390;30.778;2022-12-07T01:39:53;100318.97;;;-4.90;70.99
46448;BME280;32145;50.390;30.778;2022-12-07T01:42:38;100320.66;;;-4.89;71.43
46448;BME280;32145;50.390;30.778;2022-12-07T01:45:44;100315.13;;;-4.86;71.70
46448;BME280;32145;50.390;30.778;2022-12-07T01:48:33;100310.44;;;-4.82;71.66
46448;BME280;32145;50.390;30.778;2022-12-07T01:51:19;100305.84;;;-4.80;71.37
46448;BME280;32145;50.390;30.778;2022-12-07T01:54:04;100301.19;;;-4.76;71.92
46448;BME280;32145;50.390;30.778;2022-12-07T01:56:51;100302.63;;;-4.72;72.17
46448;BME280;32145;50.390;30.778;2022-12-07T01:59:37;100299.69;;;-4.69;72.08
46448;BME280;32145;50.390;30.778;2022-12-07T02:02:33;100296.81;;;-4.66;72.51
46448;BME280;32145;50.390;30.778;2022-12-07T02:05:18;100296.56;;;-4.63;72.46
46448;BME280;32145;50.390;30.778;2022-12-07T02:08:03;100298.00;;;-4.59;72.33
46448;BME280;32145;50.390;30.778;2022-12-07T02:10:47;100298.84;;;-4.58;72.79
46448;BME280;32145;50.390;30.778;2022-12-07T02:13:33;100293.28;;;-4.55;72.70
46448;BME280;32145;50.390;30.778;2022-12-07T02:16:26;100295.81;;;-4.54;73.16
46448;BME280;32145;50.390;30.778;2022-12-07T02:19:53;100286.66;;;-4.49;73.97
46448;BME280;32145;50.390;30.778;2022-12-07T02:26:37;100278.47;;;-4.46;73.59
46448;BME280;32145;50.390;30.778;2022-12-07T02:29:31;100274.84;;;-4.45;73.47
46448;BME280;32145;50.390;30.778;2022-12-07T02:32:23;100270.28;;;-4.43;73.51
46448;BME280;32145;50.390;30.778;2022-12-07T02:35:12;100261.38;;;-4.42;73.66
46448;BME280;32145;50.390;30.778;2022-12-07T02:38:03;100261.13;;;-4.39;73.68
46448;BME280;32145;50.390;30.778;2022-12-07T02:40:55;100269.78;;;-4.37;73.41
46448;BME280;32145;50.390;30.778;2022-12-07T02:43:43;100267.00;;;-4.35;73.96
46448;BME280;32145;50.390;30.778;2022-12-07T02:46:32;100270.50;;;-4.35;73.87
46448;BME280;32145;50.390;30.778;2022-12-07T02:49:17;100269.53;;;-4.34;73.88
46448;BME280;32145;50.390;30.778;2022-12-07T02:52:03;100270.38;;;-4.33;73.93
46448;BME280;32145;50.390;30.778;2022-12-07T02:54:47;100269.28;;;-4.31;74.00
46448;BME280;32145;50.390;30.778;2022-12-07T02:57:53;100264.72;;;-4.29;74.79
46448;BME280;32145;50.390;30.778;2022-12-07T03:00:44;100255.66;;;-4.26;74.79
46448;BME280;32145;50.390;30.778;2022-12-07T03:03:35;100261.53;;;-4.22;74.27
46448;BME280;32145;50.390;30.778;2022-12-07T03:06:26;100254.44;;;-4.22;74.47
46448;BME280;32145;50.390;30.778;2022-12-07T03:09:14;100254.56;;;-4.23;74.48
46448;BME280;32145;50.390;30.778;2022-12-07T03:12:09;100258.19;;;-4.24;74.32
46448;BME280;32145;50.390;30.778;2022-12-07T03:15:01;100245.19;;;-4.28;74.51
46448;BME280;32145;50.390;30.778;2022-12-07T03:17:46;100246.19;;;-4.29;74.74
46448;BME280;32145;50.390;30.778;2022-12-07T03:20:35;100243.53;;;-4.29;74.59
46448;BME280;32145;50.390;30.778;2022-12-07T03:23:22;100241.81;;;-4.30;74.61
46448;BME280;32145;50.390;30.778;2022-12-07T03:26:10;100237.50;;;-4.31;74.73
46448;BME280;32145;50.390;30.778;2022-12-07T03:28:58;100234.03;;;-4.31;74.58
46448;BME280;32145;50.390;30.778;2022-12-07T03:31:46;100230.53;;;-4.32;74.44
46448;BME280;32145;50.390;30.778;2022-12-07T03:34:35;100228.88;;;-4.33;74.43
46448;BME280;32145;50.390;30.778;2022-12-07T03:37:26;100223.56;;;-4.33;74.68
46448;BME280;32145;50.390;30.778;2022-12-07T03:40:17;100220.19;;;-4.35;74.50
46448;BME280;32145;50.390;30.778;2022-12-07T03:43:04;100213.22;;;-4.36;74.59
46448;BME280;32145;50.390;30.778;2022-12-07T03:46:00;100212.38;;;-4.36;74.74
46448;BME280;32145;50.390;30.778;2022-12-07T03:48:50;100214.06;;;-4.35;75.17
46448;BME280;32145;50.390;30.778;2022-12-07T03:51:42;100210.34;;;-4.33;75.07
46448;BME280;32145;50.390;30.778;2022-12-07T03:54:32;100202.41;;;-4.33;75.18
46448;BME280;32145;50.390;30.778;2022-12-07T03:57:18;100204.91;;;-4.31;75.05
46448;BME280;32145;50.390;30.778;2022-12-07T04:00:06;100193.72;;;-4.35;74.97
46448;BME280;32145;50.390;30.778;2022-12-07T04:02:51;100195.69;;;-4.37;75.45
46448;BME280;32145;50.390;30.778;2022-12-07T04:05:35;100193.97;;;-4.38;75.52
46448;BME280;32145;50.390;30.778;2022-12-07T04:08:20;100196.63;;;-4.38;75.32
46448;BME280;32145;50.390;30.778;2022-12-07T04:11:05;100188.69;;;-4.38;75.37
46448;BME280;32145;50.390;30.778;2022-12-07T04:13:49;100189.66;;;-4.39;75.26
46448;BME280;32145;50.390;30.778;2022-12-07T04:16:33;100188.81;;;-4.40;75.63
46448;BME280;32145;50.390;30.778;2022-12-07T04:19:19;100180.03;;;-4.40;75.94
46448;BME280;32145;50.390;30.778;2022-12-07T04:22:04;100183.50;;;-4.40;75.81
46448;BME280;32145;50.390;30.778;2022-12-07T04:24:48;100192.31;;;-4.39;76.02
46448;BME280;32145;50.390;30.778;2022-12-07T04:27:33;100190.63;;;-4.40;75.63
46448;BME280;32145;50.390;30.778;2022-12-07T04:30:18;100179.19;;;-4.41;75.74
46448;BME280;32145;50.390;30.778;2022-12-07T04:33:02;100180.28;;;-4.43;75.97
46448;BME280;32145;50.390;30.778;2022-12-07T04:35:46;100169.72;;;-4.43;75.83
46448;BME280;32145;50.390;30.778;2022-12-07T04:38:30;100168.84;;;-4.44;75.65
46448;BME280;32145;50.390;30.778;2022-12-07T04:41:14;100164.53;;;-4.45;75.84
46448;BME280;32145;50.390;30.778;2022-12-07T04:44:02;100170.69;;;-4.44;76.20
46448;BME280;32145;50.390;30.778;2022-12-07T04:46:46;100173.34;;;-4.44;76.20
46448;BME280;32145;50.390;30.778;2022-12-07T04:49:31;100170.94;;;-4.47;76.66
46448;BME280;32145;50.390;30.778;2022-12-07T04:52:16;100173.59;;;-4.47;76.15
46448;BME280;32145;50.390;30.778;2022-12-07T04:54:59;100166.63;;;-4.48;76.17
46448;BME280;32145;50.390;30.778;2022-12-07T04:57:43;100172.59;;;-4.46;76.39
46448;BME280;32145;50.390;30.778;2022-12-07T05:00:29;100166.63;;;-4.48;76.30
46448;BME280;32145;50.390;30.778;2022-12-07T05:03:13;100163.84;;;-4.47;76.36
46448;BME280;32145;50.390;30.778;2022-12-07T05:05:57;100162.16;;;-4.48;76.38
46448;BME280;32145;50.390;30.778;2022-12-07T05:08:41;100157.94;;;-4.50;76.41
46448;BME280;32145;50.390;30.778;2022-12-07T05:11:25;100149.03;;;-4.49;76.59
46448;BME280;32145;50.390;30.778;2022-12-07T05:14:12;100156.03;;;-4.48;76.43
46448;BME280;32145;50.390;30.778;2022-12-07T05:16:58;100156.97;;;-4.49;76.39
46448;BME280;32145;50.390;30.778;2022-12-07T05:19:41;100149.03;;;-4.49;76.41
46448;BME280;32145;50.390;30.778;2022-12-07T05:22:25;100154.31;;;-4.49;76.47
46448;BME280;32145;50.390;30.778;2022-12-07T05:25:09;100156.03;;;-4.48;76.55
46448;BME280;32145;50.390;30.778;2022-12-07T05:27:54;100146.38;;;-4.49;76.92
46448;BME280;32145;50.390;30.778;2022-12-07T05:30:39;100140.41;;;-4.51;76.53
46448;BME280;32145;50.390;30.778;2022-12-07T05:33:24;100147.38;;;-4.50;76.56
46448;BME280;32145;50.390;30.778;2022-12-07T05:36:08;100147.63;;;-4.54;76.43
46448;BME280;32145;50.390;30.778;2022-12-07T05:38:53;100144.84;;;-4.52;76.47
46448;BME280;32145;50.390;30.778;2022-12-07T05:41:36;100140.41;;;-4.51;76.41
46448;BME280;32145;50.390;30.778;2022-12-07T05:44:20;100143.75;;;-4.49;76.60
46448;BME280;32145;50.390;30.778;2022-12-07T05:47:04;100150.00;;;-4.50;76.55
46448;BME280;32145;50.390;30.778;2022-12-07T05:49:50;100147.38;;;-4.50;76.49
46448;BME280;32145;50.390;30.778;2022-12-07T05:52:34;100147.38;;;-4.50;76.75
46448;BME280;32145;50.390;30.778;2022-12-07T05:55:18;100145.44;;;-4.48;76.86
46448;BME280;32145;50.390;30.778;2022-12-07T05:58:02;100141.81;;;-4.47;76.80
46448;BME280;32145;50.390;30.778;2022-12-07T06:00:46;100147.97;;;-4.47;76.91
46448;BME280;32145;50.390;30.778;2022-12-07T06:03:30;100152.16;;;-4.44;77.06
46448;BME280;32145;50.390;30.778;2022-12-07T06:06:15;100147.56;;;-4.42;76.87
46448;BME280;32145;50.390;30.778;2022-12-07T06:08:59;100152.72;;;-4.41;76.86
46448;BME280;32145;50.390;30.778;2022-12-07T06:11:44;100155.25;;;-4.39;76.88
46448;BME280;32145;50.390;30.778;2022-12-07T06:14:28;100149.25;;;-4.41;77.18
46448;BME280;32145;50.390;30.778;2022-12-07T06:17:13;100149.94;;;-4.39;77.47
46448;BME280;32145;50.390;30.778;2022-12-07T06:19:57;100139.94;;;-4.35;77.46
46448;BME280;32145;50.390;30.778;2022-12-07T06:22:43;100146.81;;;-4.33;77.22
46448;BME280;32145;50.390;30.778;2022-12-07T06:25:27;100141.22;;;-4.30;77.09
46448;BME280;32145;50.390;30.778;2022-12-07T06:28:11;100139.44;;;-4.29;77.45
46448;BME280;32145;50.390;30.778;2022-12-07T06:30:57;100142.63;;;-4.25;77.49
46448;BME280;32145;50.390;30.778;2022-12-07T06:33:41;100144.47;;;-4.26;77.58
46448;BME280;32145;50.390;30.778;2022-12-07T06:36:25;100142.50;;;-4.24;77.58
46448;BME280;32145;50.390;30.778;2022-12-07T06:39:10;100145.63;;;-4.19;77.52
46448;BME280;32145;50.390;30.778;2022-12-07T06:41:55;100143.66;;;-4.17;77.59
46448;BME280;32145;50.390;30.778;2022-12-07T06:44:40;100137.28;;;-4.14;77.84
46448;BME280;32145;50.390;30.778;2022-12-07T06:47:24;100137.00;;;-4.11;77.78
46448;BME280;32145;50.390;30.778;2022-12-07T06:50:08;100139.66;;;-4.11;77.59
46448;BME280;32145;50.390;30.778;2022-12-07T06:52:53;100128.94;;;-4.09;77.54
46448;BME280;32145;50.390;30.778;2022-12-07T06:55:38;100136.75;;;-4.08;78.02
46448;BME280;32145;50.390;30.778;2022-12-07T06:58:22;100127.84;;;-4.07;77.80
46448;BME280;32145;50.390;30.778;2022-12-07T07:01:09;100127.84;;;-4.07;77.81
46448;BME280;32145;50.390;30.778;2022-12-07T07:03:53;100123.94;;;-4.03;77.88
46448;BME280;32145;50.390;30.778;2022-12-07T07:06:37;100129.00;;;-3.99;78.33
46448;BME280;32145;50.390;30.778;2022-12-07T07:09:21;100133.19;;;-3.97;78.08
46448;BME280;32145;50.390;30.778;2022-12-07T07:12:06;100125.66;;;-3.92;78.17
46448;BME280;32145;50.390;30.778;2022-12-07T07:14:50;100132.53;;;-3.89;78.09
46448;BME280;32145;50.390;30.778;2022-12-07T07:17:34;100129.75;;;-3.88;77.84
46448;BME280;32145;50.390;30.778;2022-12-07T07:20:18;100130.56;;;-3.87;78.27
46448;BME280;32145;50.390;30.778;2022-12-07T07:23:03;100125.03;;;-3.84;78.22
46448;BME280;32145;50.390;30.778;2022-12-07T07:25:47;100128.34;;;-3.82;78.20
46448;BME280;32145;50.390;30.778;2022-12-07T07:28:32;100119.31;;;-3.79;78.07
46448;BME280;32145;50.390;30.778;2022-12-07T07:31:17;100126.28;;;-3.78;78.33
46448;BME280;32145;50.390;30.778;2022-12-07T07:34:01;100115.56;;;-3.77;78.23
46448;BME280;32145;50.390;30.778;2022-12-07T07:36:45;100127.13;;;-3.78;78.21
46448;BME280;32145;50.390;30.778;2022-12-07T07:39:29;100123.50;;;-3.77;78.42
46448;BME280;32145;50.390;30.778;2022-12-07T07:42:13;100124.47;;;-3.78;78.11
46448;BME280;32145;50.390;30.778;2022-12-07T07:44:58;100118.47;;;-3.80;78.35
46448;BME280;32145;50.390;30.778;2022-12-07T07:47:42;100127.13;;;-3.78;77.82
46448;BME280;32145;50.390;30.778;2022-12-07T07:50:26;100121.81;;;-3.78;78.01
46448;BME280;32145;50.390;30.778;2022-12-07T07:53:10;100122.78;;;-3.79;77.91
46448;BME280;32145;50.390;30.778;2022-12-07T07:55:54;100122.66;;;-3.77;77.81
46448;BME280;32145;50.390;30.778;2022-12-07T07:58:38;100122.09;;;-3.81;78.15
46448;BME280;32145;50.390;30.778;2022-12-07T08:01:23;100121.81;;;-3.78;78.26
46448;BME280;32145;50.390;30.778;2022-12-07T08:04:08;100120.75;;;-3.75;78.10
46448;BME280;32145;50.390;30.778;2022-12-07T08:06:52;100114.31;;;-3.72;78.09
46448;BME280;32145;50.390;30.778;2022-12-07T08:09:36;100114.19;;;-3.71;78.65
46448;BME280;32145;50.390;30.778;2022-12-07T08:12:20;100113.78;;;-3.66;78.42
46448;BME280;32145;50.390;30.778;2022-12-07T08:15:05;100109.19;;;-3.64;78.43
46448;BME280;32145;50.390;30.778;2022-12-07T08:17:51;100108.47;;;-3.66;78.21
46448;BME280;32145;50.390;30.778;2022-12-07T08:20:35;100103.47;;;-3.69;78.19
46448;BME280;32145;50.390;30.778;2022-12-07T08:23:20;100107.53;;;-3.65;78.60
46448;BME280;32145;50.390;30.778;2022-12-07T08:26:06;100105.44;;;-3.62;78.85
46448;BME280;32145;50.390;30.778;2022-12-07T08:28:53;100099.84;;;-3.58;78.38
46448;BME280;32145;50.390;30.778;2022-12-07T08:31:37;100095.66;;;-3.61;78.28
46448;BME280;32145;50.390;30.778;2022-12-07T08:34:23;100095.81;;;-3.63;77.96
46448;BME280;32145;50.390;30.778;2022-12-07T08:37:06;100080.88;;;-3.64;78.48
46448;BME280;32145;50.390;30.778;2022-12-07T08:39:50;100082.56;;;-3.63;78.54
46448;BME280;32145;50.390;30.778;2022-12-07T08:42:34;100079.78;;;-3.61;78.92
46448;BME280;32145;50.390;30.778;2022-12-07T08:45:20;100082.28;;;-3.59;78.93
46448;BME280;32145;50.390;30.778;2022-12-07T08:48:09;100082.72;;;-3.54;79.13
46448;BME280;32145;50.390;30.778;2022-12-07T08:50:57;100079.94;;;-3.53;78.83
46448;BME280;32145;50.390;30.778;2022-12-07T08:53:42;100074.50;;;-3.51;78.53
46448;BME280;32145;50.390;30.778;2022-12-07T08:56:27;100070.72;;;-3.48;78.76
46448;BME280;32145;50.390;30.778;2022-12-07T08:59:13;100065.97;;;-3.45;78.86
46448;BME280;32145;50.390;30.778;2022-12-07T09:01:59;100069.22;;;-3.41;79.10
46448;BME280;32145;50.390;30.778;2022-12-07T09:04:42;100063.34;;;-3.35;78.94
46448;BME280;32145;50.390;30.778;2022-12-07T09:07:30;100060.41;;;-3.32;78.79
46448;BME280;32145;50.390;30.778;2022-12-07T09:10:15;100061.94;;;-3.29;78.74
46448;BME280;32145;50.390;30.778;2022-12-07T09:12:59;100061.13;;;-3.30;78.53
46448;BME280;32145;50.390;30.778;2022-12-07T09:15:43;100058.47;;;-3.30;78.62
46448;BME280;32145;50.390;30.778;2022-12-07T09:18:27;100044.22;;;-3.29;79.00
46448;BME280;32145;50.390;30.778;2022-12-07T09:21:11;100048.28;;;-3.25;78.85
46448;BME280;32145;50.390;30.778;2022-12-07T09:23:57;100045.50;;;-3.23;78.78
46448;BME280;32145;50.390;30.778;2022-12-07T09:26:41;100035.28;;;-3.18;78.50
46448;BME280;32145;50.390;30.778;2022-12-07T09:29:25;100032.50;;;-3.16;78.63
46448;BME280;32145;50.390;30.778;2022-12-07T09:32:09;100035.56;;;-3.11;78.82
46448;BME280;32145;50.390;30.778;2022-12-07T09:34:53;100026.22;;;-3.05;78.76
46448;BME280;32145;50.390;30.778;2022-12-07T09:37:37;100026.19;;;-2.95;78.80
46448;BME280;32145;50.390;30.778;2022-12-07T09:40:23;100020.88;;;-2.86;78.91
46448;BME280;32145;50.390;30.778;2022-12-07T09:43:12;100021.28;;;-2.80;78.49
46448;BME280;32145;50.390;30.778;2022-12-07T09:45:57;100018.50;;;-2.79;78.75
46448;BME280;32145;50.390;30.778;2022-12-07T09:48:43;100012.38;;;-2.79;78.56
46448;BME280;32145;50.390;30.778;2022-12-07T09:51:27;100024.78;;;-2.80;78.83
46448;BME280;32145;50.390;30.778;2022-12-07T09:54:13;100012.22;;;-2.78;78.42
46448;BME280;32145;50.390;30.778;2022-12-07T09:56:59;100012.50;;;-2.81;78.75
46448;BME280;32145;50.390;30.778;2022-12-07T09:59:43;100009.72;;;-2.79;78.92
46448;BME280;32145;50.390;30.778;2022-12-07T10:02:35;100004.94;;;-2.76;78.79
46448;BME280;32145;50.390;30.778;2022-12-07T10:05:21;100007.03;;;-2.69;79.06
46448;BME280;32145;50.390;30.778;2022-12-07T10:08:07;100008.81;;;-2.60;78.67
46448;BME280;32145;50.390;30.778;2022-12-07T10:10:54;100015.22;;;-2.53;78.46
46448;BME280;32145;50.390;30.778;2022-12-07T10:13:41;100019.13;;;-2.47;78.70
46448;BME280;32145;50.390;30.778;2022-12-07T10:16:32;100007.66;;;-2.48;78.77
46448;BME280;32145;50.390;30.778;2022-12-07T10:19:23;100006.97;;;-2.50;78.27
46448;BME280;32145;50.390;30.778;2022-12-07T10:22:12;100017.75;;;-2.51;78.40
46448;BME280;32145;50.390;30.778;2022-12-07T10:24:56;100013.41;;;-2.52;78.48
46448;BME280;32145;50.390;30.778;2022-12-07T10:27:58;100004.88;;;-2.56;78.54
46448;BME280;32145;50.390;30.778;2022-12-07T10:30:51;100008.13;;;-2.62;78.64
46448;BME280;32145;50.390;30.778;2022-12-07T10:33:37;100009.25;;;-2.65;78.43
46448;BME280;32145;50.390;30.778;2022-12-07T10:36:24;100002.53;;;-2.69;79.00
46448;BME280;32145;50.390;30.778;2022-12-07T10:39:13;100000.03;;;-2.70;79.16
46448;BME280;32145;50.390;30.778;2022-12-07T10:41:58;100002.41;;;-2.67;79.41
46448;BME280;32145;50.390;30.778;2022-12-07T10:44:42;99999.88;;;-2.69;79.01
46448;BME280;32145;50.390;30.778;2022-12-07T10:47:42;99998.50;;;-2.73;79.54
46448;BME280;32145;50.390;30.778;2022-12-07T10:50:47;99993.19;;;-2.73;79.15
46448;BME280;32145;50.390;30.778;2022-12-07T10:53:45;99989.59;;;-2.72;79.06
46448;BME280;32145;50.390;30.778;2022-12-07T10:56:54;99981.75;;;-2.74;78.66
46448;BME280;32145;50.390;30.778;2022-12-07T10:59:59;99977.28;;;-2.73;79.33
46448;BME280;32145;50.390;30.778;2022-12-07T11:03:09;99970.84;;;-2.70;79.42
46448;BME280;32145;50.390;30.778;2022-12-07T11:06:07;99972.53;;;-2.69;79.23
46448;BME280;32145;50.390;30.778;2022-12-07T11:09:22;99965.25;;;-2.67;78.95
46448;BME280;32145;50.390;30.778;2022-12-07T11:12:13;99966.94;;;-2.66;79.39
46448;BME280;32145;50.390;30.778;2022-12-07T11:15:03;99966.63;;;-2.63;79.29
46448;BME280;32145;50.390;30.778;2022-12-07T11:17:53;99961.31;;;-2.63;79.16
46448;BME280;32145;50.390;30.778;2022-12-07T11:20:45;99968.00;;;-2.59;79.45
46448;BME280;32145;50.390;30.778;2022-12-07T11:23:42;99969.38;;;-2.55;79.29
46448;BME280;32145;50.390;30.778;2022-12-07T11:26:39;99966.88;;;-2.56;79.06
46448;BME280;32145;50.390;30.778;2022-12-07T11:32:47;99972.25;;;-2.66;79.31
46448;BME280;32145;50.390;30.778;2022-12-07T11:35:45;99975.88;;;-2.67;79.79
46448;BME280;32145;50.390;30.778;2022-12-07T11:38:37;99979.22;;;-2.65;79.26
46448;BME280;32145;50.390;30.778;2022-12-07T11:41:28;99966.94;;;-2.66;79.45
46448;BME280;32145;50.390;30.778;2022-12-07T11:44:23;99969.59;;;-2.66;79.32
46448;BME280;32145;50.390;30.778;2022-12-07T11:47:12;99974.91;;;-2.66;79.32
46448;BME280;32145;50.390;30.778;2022-12-07T11:50:09;99968.59;;;-2.65;79.40
46448;BME280;32145;50.390;30.778;2022-12-07T11:53:01;99968.59;;;-2.65;79.65
46448;BME280;32145;50.390;30.778;2022-12-07T11:55:51;99968.59;;;-2.65;79.68
46448;BME280;32145;50.390;30.778;2022-12-07T11:58:42;99963.16;;;-2.64;79.23
46448;BME280;32145;50.390;30.778;2022-12-07T12:01:40;99961.47;;;-2.65;79.45
46448;BME280;32145;50.390;30.778;2022-12-07T12:04:32;99961.63;;;-2.66;79.44
46448;BME280;32145;50.390;30.778;2022-12-07T12:07:22;99962.31;;;-2.64;79.85
46448;BME280;32145;50.390;30.778;2022-12-07T12:10:17;99963.28;;;-2.65;79.68
46448;BME280;32145;50.390;30.778;2022-12-07T12:13:14;99964.28;;;-2.66;79.61
46448;BME280;32145;50.390;30.778;2022-12-07T12:16:27;99959.66;;;-2.64;79.94
46448;BME280;32145;50.390;30.778;2022-12-07T12:19:25;99961.63;;;-2.66;79.22
46448;BME280;32145;50.390;30.778;2022-12-07T12:22:15;99951.00;;;-2.66;79.92
46448;BME280;32145;50.390;30.778;2022-12-07T12:25:05;99959.94;;;-2.67;79.98
46448;BME280;32145;50.390;30.778;2022-12-07T12:27:52;99963.72;;;-2.70;79.80
46448;BME280;32145;50.390;30.778;2022-12-07T12:30:39;99962.19;;;-2.73;80.00
46448;BME280;32145;50.390;30.778;2022-12-07T12:33:29;99956.88;;;-2.73;80.03
46448;BME280;32145;50.390;30.778;2022-12-07T12:36:21;99967.66;;;-2.74;80.28
46448;BME280;32145;50.390;30.778;2022-12-07T12:39:09;99968.50;;;-2.74;80.23
46448;BME280;32145;50.390;30.778;2022-12-07T12:41:57;99965.00;;;-2.74;80.36
46448;BME280;32145;50.390;30.778;2022-12-07T12:45:16;99960.81;;;-2.77;80.47
46448;BME280;32145;50.390;30.778;2022-12-07T12:48:01;99961.09;;;-2.80;80.30
46448;BME280;32145;50.390;30.778;2022-12-07T12:50:45;99959.16;;;-2.78;80.28
46448;BME280;32145;50.390;30.778;2022-12-07T12:53:30;99964.59;;;-2.79;80.35
46448;BME280;32145;50.390;30.778;2022-12-07T12:56:28;99962.22;;;-2.82;80.42
46448;BME280;32145;50.390;30.778;2022-12-07T12:59:24;99959.72;;;-2.84;80.26
46448;BME280;32145;50.390;30.778;2022-12-07T13:02:20;99959.72;;;-2.84;80.65
46448;BME280;32145;50.390;30.778;2022-12-07T13:05:17;99956.22;;;-2.85;80.23
46448;BME280;32145;50.390;30.778;2022-12-07T13:08:17;99960.69;;;-2.85;80.17
46448;BME280;32145;50.390;30.778;2022-12-07T13:11:17;99966.00;;;-2.85;80.49
46448;BME280;32145;50.390;30.778;2022-12-07T13:17:58;99960.00;;;-2.87;80.41
46448;BME280;32145;50.390;30.778;2022-12-07T13:20:53;99954.81;;;-2.89;80.69
46448;BME280;32145;50.390;30.778;2022-12-07T13:23:39;99954.16;;;-2.91;80.60
46448;BME280;32145;50.390;30.778;2022-12-07T13:26:37;99960.28;;;-2.90;80.61
46448;BME280;32145;50.390;30.778;2022-12-07T13:29:22;99965.59;;;-2.90;80.97
46448;BME280;32145;50.390;30.778;2022-12-07T13:32:23;99962.94;;;-2.90;80.99
46448;BME280;32145;50.390;30.778;2022-12-07T13:35:34;99965.59;;;-2.90;80.82
46448;BME280;32145;50.390;30.778;2022-12-07T13:38:25;99958.59;;;-2.91;80.38
46448;BME280;32145;50.390;30.778;2022-12-07T13:41:14;99963.91;;;-2.91;80.87
46448;BME280;32145;50.390;30.778;2022-12-07T13:44:01;99954.28;;;-2.92;80.86
46448;BME280;32145;50.390;30.778;2022-12-07T13:46:52;99962.94;;;-2.90;80.71
46448;BME280;32145;50.390;30.778;2022-12-07T13:49:46;99967.56;;;-2.92;81.07
46448;BME280;32145;50.390;30.778;2022-12-07T13:52:32;99968.41;;;-2.92;80.98
46448;BME280;32145;50.390;30.778;2022-12-07T13:55:17;99956.09;;;-2.93;80.59
46448;BME280;32145;50.390;30.778;2022-12-07T13:58:01;99954.44;;;-2.94;80.83
46448;BME280;32145;50.390;30.778;2022-12-07T14:00:46;99958.75;;;-2.93;81.06
46448;BME280;32145;50.390;30.778;2022-12-07T14:03:32;99960.59;;;-2.93;80.93
46448;BME280;32145;50.390;30.778;2022-12-07T14:06:22;99959.59;;;-2.92;80.92
46448;BME280;32145;50.390;30.778;2022-12-07T14:09:19;99964.91;;;-2.92;80.79
46448;BME280;32145;50.390;30.778;2022-12-07T14:12:05;99957.94;;;-2.93;80.88
46448;BME280;32145;50.390;30.778;2022-12-07T14:14:50;99957.94;;;-2.93;80.72
46448;BME280;32145;50.390;30.778;2022-12-07T14:17:35;99960.72;;;-2.95;80.51
46448;BME280;32145;50.390;30.778;2022-12-07T14:20:32;99956.41;;;-2.96;80.99
46448;BME280;32145;50.390;30.778;2022-12-07T14:23:24;99958.06;;;-2.95;81.06
46448;BME280;32145;50.390;30.778;2022-12-07T14:26:13;99965.19;;;-2.95;80.89
46448;BME280;32145;50.390;30.778;2022-12-07T14:29:18;99959.75;;;-2.94;81.15
46448;BME280;32145;50.390;30.778;2022-12-07T14:32:19;99952.75;;;-2.95;81.27
46448;BME280;32145;50.390;30.778;2022-12-07T14:35:09;99950.25;;;-2.96;81.09
46448;BME280;32145;50.390;30.778;2022-12-07T14:37:53;99950.25;;;-2.96;81.39
46448;BME280;32145;50.390;30.778;2022-12-07T14:40:38;99942.97;;;-2.94;80.88